Time;durP1;ratioP1;P1;durP2;ratioP2;P2;SDS_P1;SDS_P2;PMS_P1;PMS_P2;Temp;Humidity;BMP_temperature;BMP_pressure;BME280_temperature;BME280_humidity;BME280_pressure;Samples;Min_cycle;Max_cycle;Signal;HPM_P1;HPM_P2
2022/10/18 00:00:08;;;;;;;7.35;5.95;;;23.20;48.70;;;;;;4969175;28;20050;-58
2022/10/18 00:02:35;;;;;;;7.55;6.13;;;23.10;48.60;;;;;;4968357;28;20054;-58
2022/10/18 00:05:02;;;;;;;7.03;5.78;;;23.10;48.60;;;;;;4969258;28;20059;-58
2022/10/18 00:07:29;;;;;;;8.20;6.38;;;23.10;48.60;;;;;;4967238;28;20051;-58
2022/10/18 00:09:56;;;;;;;8.40;6.30;;;23.10;48.60;;;;;;4969065;28;20133;-58
2022/10/18 00:12:24;;;;;;;7.40;5.95;;;23.10;48.60;;;;;;4969043;28;20306;-58
2022/10/18 00:14:51;;;;;;;8.07;6.03;;;23.10;48.60;;;;;;4968717;28;20055;-59
2022/10/18 00:17:18;;;;;;;8.07;5.55;;;23.10;48.60;;;;;;4969366;28;20047;-59
2022/10/18 00:19:45;;;;;;;7.47;5.90;;;23.10;48.50;;;;;;4962848;28;20058;-58
2022/10/18 00:22:12;;;;;;;7.90;5.90;;;23.10;48.50;;;;;;4969253;28;20085;-60
2022/10/18 00:24:39;;;;;;;7.40;5.55;;;23.10;48.50;;;;;;4968703;28;20077;-60
2022/10/18 00:27:06;;;;;;;8.18;5.53;;;23.20;48.60;;;;;;4968924;28;20058;-60
2022/10/18 00:29:34;;;;;;;6.95;5.70;;;23.10;48.50;;;;;;4968822;28;20510;-60
2022/10/18 00:32:01;;;;;;;8.40;5.65;;;23.10;48.50;;;;;;4968696;28;20059;-61
2022/10/18 00:34:28;;;;;;;8.25;6.20;;;23.10;48.50;;;;;;4968778;28;20082;-60
2022/10/18 00:36:55;;;;;;;6.70;5.13;;;23.10;48.50;;;;;;4968696;28;20359;-60
2022/10/18 00:39:22;;;;;;;9.50;5.75;;;23.10;48.60;;;;;;4969014;28;20067;-60
2022/10/18 00:41:49;;;;;;;6.40;5.05;;;23.10;48.60;;;;;;4973038;28;20303;-61
2022/10/18 00:44:55;;;;;;;7.25;6.05;;;23.10;48.60;;;;;;4971805;28;20054;-60
2022/10/18 00:47:22;;;;;;;8.20;6.13;;;23.10;48.60;;;;;;4971346;28;20050;-60
2022/10/18 00:49:54;;;;;;;7.25;5.93;;;23.00;48.60;;;;;;4972227;28;20046;-60
2022/10/18 00:52:39;;;;;;;7.05;6.07;;;23.10;48.60;;;;;;4967910;28;20055;-60
2022/10/18 00:55:07;;;;;;;7.95;5.78;;;23.00;48.60;;;;;;4971966;28;20273;-60
2022/10/18 00:57:36;;;;;;;5.80;4.97;;;23.10;48.60;;;;;;4957027;28;20335;-60
2022/10/18 01:00:08;;;;;;;6.00;5.30;;;23.00;49.10;;;;;;4952979;28;20059;-60
2022/10/18 01:02:37;;;;;;;6.80;5.50;;;23.00;48.60;;;;;;4952854;28;20039;-60
2022/10/18 01:05:05;;;;;;;6.32;5.28;;;23.00;48.60;;;;;;4953106;28;20059;-60
2022/10/18 01:08:12;;;;;;;7.30;6.05;;;23.00;48.60;;;;;;4952932;28;20059;-60
2022/10/18 01:11:14;;;;;;;7.68;5.60;;;23.00;48.60;;;;;;4952606;28;20047;-60
2022/10/18 01:14:11;;;;;;;9.00;5.80;;;23.00;48.40;;;;;;4951274;29;20051;-60
2022/10/18 01:16:59;;;;;;;8.00;6.05;;;23.00;48.40;;;;;;4952465;28;20134;-60
2022/10/18 01:20:06;;;;;;;9.68;5.47;;;23.00;48.50;;;;;;4952550;28;20389;-60
2022/10/18 01:22:49;;;;;;;6.82;5.32;;;23.00;48.50;;;;;;4969866;28;20057;-60
2022/10/18 01:25:41;;;;;;;7.55;5.53;;;23.00;48.50;;;;;;4968390;28;20058;-60
2022/10/18 01:28:34;;;;;;;6.13;4.97;;;23.00;48.50;;;;;;4970907;28;20095;-60
2022/10/18 01:31:09;;;;;;;7.05;5.40;;;23.00;48.50;;;;;;4971851;28;20562;-61
2022/10/18 01:33:56;;;;;;;6.28;5.35;;;23.00;48.50;;;;;;4972064;28;20061;-60
2022/10/18 01:36:39;;;;;;;7.38;5.25;;;23.00;48.40;;;;;;4971689;28;20055;-60
2022/10/18 01:39:11;;;;;;;6.57;5.40;;;23.00;48.40;;;;;;4970419;28;20109;-60
2022/10/18 01:41:41;;;;;;;6.95;5.28;;;23.00;48.40;;;;;;4970718;28;20524;-58
2022/10/18 01:44:13;;;;;;;7.10;5.68;;;23.00;48.40;;;;;;4971093;28;20047;-58
2022/10/18 01:46:42;;;;;;;6.00;4.78;;;23.00;48.40;;;;;;4971623;28;20058;-58
2022/10/18 01:49:10;;;;;;;5.85;4.95;;;23.00;48.40;;;;;;4971381;28;20058;-58
2022/10/18 01:51:37;;;;;;;7.30;4.95;;;23.00;48.40;;;;;;4969274;28;20047;-58
2022/10/18 01:54:04;;;;;;;6.35;5.22;;;23.00;48.40;;;;;;4971670;28;21835;-59
2022/10/18 01:56:55;;;;;;;5.95;5.18;;;22.90;48.30;;;;;;4977006;28;20058;-60
2022/10/18 01:59:42;;;;;;;6.65;5.63;;;22.90;48.30;;;;;;4951607;28;20492;-61
2022/10/18 02:02:40;;;;;;;8.05;5.60;;;23.00;49.00;;;;;;4951565;28;20062;-61
2022/10/18 02:05:21;;;;;;;5.22;4.72;;;23.00;48.50;;;;;;4965638;28;20046;-59
2022/10/18 02:07:58;;;;;;;7.22;6.03;;;22.90;48.40;;;;;;4971139;28;20046;-60
2022/10/18 02:11:03;;;;;;;7.07;5.35;;;22.90;48.40;;;;;;4970553;28;20102;-60
2022/10/18 02:13:37;;;;;;;6.68;5.32;;;22.90;48.40;;;;;;4971507;28;20058;-60
2022/10/18 02:16:10;;;;;;;6.97;5.18;;;22.90;48.50;;;;;;4970349;28;20403;-60
2022/10/18 02:18:44;;;;;;;6.03;5.00;;;22.90;48.50;;;;;;4971013;28;20053;-60
2022/10/18 02:21:14;;;;;;;6.22;5.00;;;22.90;48.40;;;;;;4970662;28;20047;-61
2022/10/18 02:23:44;;;;;;;6.22;4.75;;;22.90;48.40;;;;;;4970802;28;20047;-60
2022/10/18 02:26:13;;;;;;;8.23;5.18;;;22.90;48.40;;;;;;4969573;28;20047;-61
2022/10/18 02:28:41;;;;;;;6.25;4.78;;;22.90;48.40;;;;;;4966363;28;20046;-60
2022/10/18 02:31:29;;;;;;;5.55;4.70;;;22.90;48.40;;;;;;4969265;28;20047;-61
2022/10/18 02:34:06;;;;;;;7.10;5.00;;;22.90;48.30;;;;;;4969544;28;20049;-60
2022/10/18 02:36:45;;;;;;;5.50;4.90;;;22.90;48.20;;;;;;4969655;28;20055;-61
2022/10/18 02:39:24;;;;;;;6.50;4.75;;;22.90;48.20;;;;;;4953075;28;20051;-61
2022/10/18 02:41:53;;;;;;;6.20;4.95;;;22.90;48.20;;;;;;4970198;28;20050;-60
2022/10/18 02:44:20;;;;;;;6.95;4.80;;;22.90;48.30;;;;;;4970276;28;20491;-61
2022/10/18 02:46:47;;;;;;;6.25;4.75;;;22.90;48.30;;;;;;4970110;28;20051;-60
2022/10/18 02:49:14;;;;;;;5.57;4.55;;;22.90;48.30;;;;;;4970078;28;20055;-61
2022/10/18 02:51:41;;;;;;;7.13;5.18;;;22.90;48.30;;;;;;4970201;28;20408;-60
2022/10/18 02:54:08;;;;;;;5.55;4.43;;;22.80;48.20;;;;;;4970312;28;20074;-60
2022/10/18 02:56:36;;;;;;;7.18;4.63;;;22.90;48.30;;;;;;4970340;28;20050;-61
2022/10/18 02:59:06;;;;;;;6.82;5.20;;;22.90;48.20;;;;;;4968894;28;20054;-60
2022/10/18 03:01:34;;;;;;;7.68;5.15;;;22.90;48.10;;;;;;4965544;28;20383;-61
2022/10/18 03:04:03;;;;;;;5.90;5.20;;;22.90;48.10;;;;;;4968044;28;20346;-61
2022/10/18 03:06:31;;;;;;;5.50;4.63;;;22.90;48.10;;;;;;4970426;28;20043;-60
2022/10/18 03:09:00;;;;;;;6.70;4.75;;;22.90;48.10;;;;;;4969504;28;20047;-60
2022/10/18 03:11:27;;;;;;;5.65;4.82;;;22.90;48.10;;;;;;4968418;28;20047;-61
2022/10/18 03:13:54;;;;;;;7.32;5.03;;;22.90;48.10;;;;;;4969818;28;20054;-60
2022/10/18 03:16:22;;;;;;;6.97;4.28;;;22.90;48.10;;;;;;4969797;28;20058;-60
2022/10/18 03:18:49;;;;;;;6.65;4.30;;;22.90;48.10;;;;;;4967985;28;20555;-60
2022/10/18 03:21:16;;;;;;;7.30;4.65;;;22.90;48.10;;;;;;4969112;28;20082;-62
2022/10/18 03:23:43;;;;;;;6.50;4.93;;;22.90;48.20;;;;;;4970106;28;20046;-61
2022/10/18 03:26:10;;;;;;;5.53;4.20;;;22.90;48.20;;;;;;4969625;28;20043;-60
2022/10/18 03:28:37;;;;;;;5.88;4.70;;;22.90;48.20;;;;;;4968078;28;20071;-61
2022/10/18 03:31:04;;;;;;;5.00;4.50;;;22.90;48.30;;;;;;4967668;28;20062;-60
2022/10/18 03:33:32;;;;;;;7.60;4.70;;;22.90;48.40;;;;;;4967444;28;20051;-61
2022/10/18 03:35:59;;;;;;;5.90;4.50;;;22.80;48.20;;;;;;4969233;28;20050;-60
2022/10/18 03:38:26;;;;;;;6.88;4.32;;;22.80;48.20;;;;;;4968434;28;20053;-61
2022/10/18 03:40:53;;;;;;;6.05;4.95;;;22.80;48.20;;;;;;4969217;28;20507;-61
2022/10/18 03:43:21;;;;;;;5.22;4.72;;;22.80;48.20;;;;;;4968765;28;20534;-61
2022/10/18 03:45:48;;;;;;;5.32;4.82;;;22.80;48.10;;;;;;4969306;28;20057;-61
2022/10/18 03:48:15;;;;;;;5.60;3.95;;;22.80;48.20;;;;;;4968636;28;20049;-60
2022/10/18 03:50:42;;;;;;;5.03;3.90;;;22.80;48.10;;;;;;4969310;28;20058;-61
2022/10/18 03:53:09;;;;;;;5.55;4.75;;;22.80;48.10;;;;;;4968907;28;20047;-61
2022/10/18 03:55:37;;;;;;;5.43;4.28;;;22.80;48.10;;;;;;4969928;28;20055;-61
2022/10/18 03:58:05;;;;;;;6.78;4.75;;;22.80;47.90;;;;;;4948981;28;20051;-60
2022/10/18 04:00:33;;;;;;;4.63;4.15;;;22.80;47.90;;;;;;4950265;28;20043;-61
2022/10/18 04:03:00;;;;;;;4.90;4.00;;;22.80;47.90;;;;;;4943056;28;20504;-59
2022/10/18 04:05:29;;;;;;;5.60;4.32;;;22.80;48.00;;;;;;4949787;28;20067;-59
2022/10/18 04:07:56;;;;;;;6.65;4.70;;;22.80;48.00;;;;;;4949605;28;20457;-59
2022/10/18 04:10:24;;;;;;;5.00;4.35;;;22.80;48.00;;;;;;4950041;28;20047;-59
2022/10/18 04:12:51;;;;;;;5.65;4.40;;;22.80;48.00;;;;;;4949271;28;20056;-59
2022/10/18 04:15:18;;;;;;;6.95;4.05;;;22.80;48.00;;;;;;4951515;28;20047;-59
2022/10/18 04:17:45;;;;;;;5.53;4.32;;;22.70;48.00;;;;;;4953835;28;20055;-59
2022/10/18 04:20:13;;;;;;;5.70;3.88;;;22.80;47.90;;;;;;4953989;28;20399;-59
2022/10/18 04:22:40;;;;;;;6.82;4.40;;;22.80;47.90;;;;;;4953919;29;20054;-59
2022/10/18 04:25:07;;;;;;;5.25;4.03;;;22.80;47.90;;;;;;4953097;28;20051;-59
2022/10/18 04:27:35;;;;;;;4.97;4.10;;;22.80;47.90;;;;;;4952972;28;20423;-59
2022/10/18 04:30:03;;;;;;;4.25;3.85;;;22.80;47.80;;;;;;4953580;28;20059;-59
2022/10/18 04:32:30;;;;;;;5.40;3.78;;;22.80;47.80;;;;;;4953786;28;20055;-59
2022/10/18 04:34:57;;;;;;;5.55;4.55;;;22.80;47.90;;;;;;4950842;29;20051;-59
2022/10/18 04:37:24;;;;;;;4.82;3.75;;;22.80;47.80;;;;;;4950834;28;20059;-59
2022/10/18 04:39:51;;;;;;;4.53;4.05;;;22.80;47.60;;;;;;4952654;28;20047;-59
2022/10/18 04:42:20;;;;;;;4.53;4.07;;;22.80;47.60;;;;;;4967559;28;20050;-59
2022/10/18 04:44:48;;;;;;;4.47;4.07;;;22.70;47.50;;;;;;4967204;28;20039;-59
2022/10/18 04:47:15;;;;;;;5.60;4.65;;;22.70;47.40;;;;;;4952548;28;20055;-59
2022/10/18 04:49:42;;;;;;;5.13;3.80;;;22.70;47.40;;;;;;4951719;29;20043;-59
2022/10/18 04:52:10;;;;;;;5.78;4.57;;;22.70;47.30;;;;;;4952194;28;20043;-59
2022/10/18 04:54:37;;;;;;;4.63;3.75;;;22.70;47.40;;;;;;4952605;28;20078;-59
2022/10/18 04:57:04;;;;;;;5.22;4.20;;;22.70;47.40;;;;;;4964176;28;20050;-59
2022/10/18 04:59:31;;;;;;;4.45;4.00;;;22.70;47.30;;;;;;4971955;28;20055;-59
2022/10/18 05:01:58;;;;;;;4.50;3.60;;;22.60;47.30;;;;;;4971858;28;20055;-59
2022/10/18 05:04:25;;;;;;;5.72;4.38;;;22.60;47.20;;;;;;4972076;28;20054;-59
2022/10/18 05:06:52;;;;;;;4.85;3.90;;;22.60;47.20;;;;;;4970756;28;20343;-59
2022/10/18 05:09:23;;;;;;;5.28;4.20;;;22.60;47.20;;;;;;4969339;28;20050;-59
2022/10/18 05:11:50;;;;;;;4.82;4.30;;;22.60;47.10;;;;;;4972728;28;20438;-59
2022/10/18 05:14:17;;;;;;;5.38;4.03;;;22.60;47.10;;;;;;4965946;28;20053;-59
2022/10/18 05:16:44;;;;;;;6.50;4.35;;;22.60;47.10;;;;;;4970015;28;20510;-60
2022/10/18 05:19:11;;;;;;;4.68;4.20;;;22.60;47.00;;;;;;4972400;28;20399;-59
2022/10/18 05:21:39;;;;;;;6.13;4.63;;;22.60;47.00;;;;;;4967870;28;20040;-60
2022/10/18 05:24:06;;;;;;;4.68;4.28;;;22.60;47.00;;;;;;4967142;28;20443;-59
2022/10/18 05:26:33;;;;;;;6.38;4.90;;;22.60;47.00;;;;;;4967380;28;20050;-60
2022/10/18 05:29:01;;;;;;;6.40;3.95;;;22.60;47.00;;;;;;4961964;28;20084;-58
2022/10/18 05:31:28;;;;;;;5.70;4.60;;;22.60;47.00;;;;;;4964477;28;20411;-61
2022/10/18 05:33:56;;;;;;;5.03;3.97;;;22.60;47.00;;;;;;4964547;28;20081;-59
2022/10/18 05:36:24;;;;;;;6.50;4.75;;;22.60;47.10;;;;;;4967184;28;20069;-59
2022/10/18 05:38:52;;;;;;;6.53;4.88;;;22.60;47.10;;;;;;4961625;28;20058;-59
2022/10/18 05:41:20;;;;;;;5.72;4.78;;;22.60;47.20;;;;;;4960116;28;20129;-59
2022/10/18 05:43:47;;;;;;;6.03;4.70;;;22.60;47.20;;;;;;4957809;28;20377;-59
2022/10/18 05:46:14;;;;;;;6.80;4.93;;;22.60;47.20;;;;;;4953131;28;20047;-59
2022/10/18 05:48:43;;;;;;;6.88;4.80;;;22.70;47.20;;;;;;4961625;28;20050;-59
2022/10/18 05:51:10;;;;;;;5.82;4.65;;;22.70;47.40;;;;;;4965265;28;20053;-58
2022/10/18 05:53:38;;;;;;;7.18;4.78;;;22.70;47.70;;;;;;4959848;28;20062;-59
2022/10/18 05:56:07;;;;;;;10.35;4.80;;;22.70;47.60;;;;;;4961169;28;20074;-59
2022/10/18 05:58:38;;;;;;;10.30;4.82;;;22.70;47.60;;;;;;4958856;28;20068;-60
2022/10/18 06:01:06;;;;;;;7.93;4.68;;;22.80;47.60;;;;;;4963463;28;20364;-60
2022/10/18 06:03:33;;;;;;;6.65;5.65;;;22.80;47.50;;;;;;4956721;28;20054;-59
2022/10/18 06:06:07;;;;;;;7.40;5.25;;;22.80;47.40;;;;;;4954970;28;20055;-60
2022/10/18 06:08:35;;;;;;;8.05;4.55;;;22.90;47.40;;;;;;4955103;28;20438;-60
2022/10/18 06:11:07;;;;;;;14.63;5.60;;;22.90;47.30;;;;;;4954187;28;20055;-61
2022/10/18 06:13:34;;;;;;;8.68;4.93;;;22.90;47.40;;;;;;4952442;28;20050;-60
2022/10/18 06:16:01;;;;;;;12.50;5.15;;;22.90;47.20;;;;;;4956612;28;20047;-60
2022/10/18 06:18:28;;;;;;;7.25;5.30;;;23.00;47.20;;;;;;4963113;28;20054;-61
2022/10/18 06:20:57;;;;;;;12.48;6.45;;;23.00;47.30;;;;;;4967796;28;20062;-60
2022/10/18 06:23:26;;;;;;;12.88;6.38;;;23.10;47.50;;;;;;4963907;28;20059;-60
2022/10/18 06:25:58;;;;;;;10.02;6.15;;;23.10;47.40;;;;;;4962225;28;20051;-60
2022/10/18 06:28:26;;;;;;;6.88;5.45;;;23.20;47.40;;;;;;4963119;28;20051;-60
2022/10/18 06:30:53;;;;;;;9.18;6.07;;;23.20;47.30;;;;;;4955179;28;20097;-60
2022/10/18 06:33:20;;;;;;;11.65;6.00;;;23.30;47.30;;;;;;4961772;28;20419;-60
2022/10/18 06:35:59;;;;;;;9.50;6.20;;;23.30;47.20;;;;;;4961862;28;20055;-59
2022/10/18 06:38:28;;;;;;;7.30;5.15;;;23.30;47.00;;;;;;4959206;28;20065;-61
2022/10/18 06:40:57;;;;;;;8.82;5.88;;;23.40;46.90;;;;;;4956928;28;20419;-59
2022/10/18 06:43:25;;;;;;;8.70;5.97;;;23.40;46.90;;;;;;4949985;28;20492;-61
2022/10/18 06:45:53;;;;;;;7.95;5.15;;;23.40;46.80;;;;;;4954927;28;20491;-61
2022/10/18 06:48:21;;;;;;;8.55;5.80;;;23.40;46.70;;;;;;4957264;28;20051;-59
2022/10/18 06:50:59;;;;;;;10.88;5.47;;;23.50;46.70;;;;;;4959803;28;20059;-60
2022/10/18 06:53:28;;;;;;;8.77;5.45;;;23.50;46.80;;;;;;4951615;28;20057;-59
2022/10/18 06:56:04;;;;;;;7.40;5.63;;;23.60;46.80;;;;;;4956149;28;20058;-59
2022/10/18 06:58:33;;;;;;;9.07;6.43;;;23.60;46.60;;;;;;4971451;28;20054;-59
2022/10/18 07:01:10;;;;;;;8.63;5.35;;;23.60;46.50;;;;;;4953640;28;20069;-59
2022/10/18 07:03:37;;;;;;;8.88;5.47;;;23.70;46.40;;;;;;4957832;28;20052;-59
2022/10/18 07:06:07;;;;;;;7.88;6.22;;;23.70;46.30;;;;;;4954477;28;20051;-60
2022/10/18 07:08:36;;;;;;;10.95;6.40;;;23.70;46.20;;;;;;4953580;28;20051;-59
2022/10/18 07:11:03;;;;;;;9.05;6.05;;;23.70;46.20;;;;;;4959985;28;20061;-59
2022/10/18 07:13:32;;;;;;;8.15;6.00;;;23.70;46.10;;;;;;4957761;28;20142;-60
2022/10/18 07:16:01;;;;;;;9.82;5.80;;;23.80;46.00;;;;;;4947007;28;20050;-58
2022/10/18 07:18:28;;;;;;;8.80;5.43;;;23.80;46.00;;;;;;4952152;28;20402;-58
2022/10/18 07:20:55;;;;;;;11.30;5.82;;;23.80;45.90;;;;;;4951091;28;20043;-59
2022/10/18 07:23:22;;;;;;;7.22;5.55;;;23.80;45.80;;;;;;4952760;28;20061;-58
2022/10/18 07:25:50;;;;;;;9.68;6.00;;;23.80;45.80;;;;;;4959190;28;20047;-60
2022/10/18 07:28:17;;;;;;;9.63;5.95;;;23.80;45.70;;;;;;4959723;28;20054;-59
2022/10/18 07:30:44;;;;;;;14.85;6.13;;;23.90;45.80;;;;;;4958114;28;20050;-60
2022/10/18 07:33:11;;;;;;;8.75;6.00;;;23.90;45.70;;;;;;4960750;28;20066;-60
2022/10/18 07:35:39;;;;;;;8.38;5.65;;;23.90;45.60;;;;;;4958081;28;20482;-60
2022/10/18 07:38:06;;;;;;;8.98;5.68;;;23.90;46.00;;;;;;4957132;28;20455;-59
2022/10/18 07:40:33;;;;;;;8.80;6.85;;;23.90;45.20;;;;;;4953133;28;20138;-60
2022/10/18 07:43:00;;;;;;;9.60;5.97;;;23.90;45.10;;;;;;4952393;28;20070;-60
2022/10/18 07:45:30;;;;;;;;;;;23.90;45.10;;;;;;4957660;28;20736;-59
2022/10/18 07:47:58;;;;;;;13.05;7.30;;;23.90;45.20;;;;;;4947638;28;19926;-59
2022/10/18 07:50:25;;;;;;;9.98;6.07;;;23.90;45.30;;;;;;4952874;28;20051;-59
2022/10/18 07:52:52;;;;;;;9.90;5.95;;;24.00;45.50;;;;;;4954178;28;20053;-58
2022/10/18 07:55:20;;;;;;;10.93;6.32;;;24.00;45.50;;;;;;4958115;28;20058;-59
2022/10/18 07:57:47;;;;;;;8.63;6.25;;;24.00;45.50;;;;;;4956150;28;20407;-59
2022/10/18 08:00:17;;;;;;;9.40;6.57;;;24.10;45.50;;;;;;4959122;28;20050;-59
2022/10/18 08:02:44;;;;;;;7.97;5.55;;;24.00;45.30;;;;;;4961900;28;20058;-59
2022/10/18 08:05:11;;;;;;;7.75;6.03;;;24.10;45.20;;;;;;4953748;28;20590;-58
2022/10/18 08:07:39;;;;;;;8.77;6.53;;;24.10;45.30;;;;;;4953160;28;20415;-58
2022/10/18 08:10:06;;;;;;;9.07;6.47;;;24.10;45.30;;;;;;4953712;28;20507;-59
2022/10/18 08:12:33;;;;;;;9.43;6.53;;;24.10;45.30;;;;;;4951067;28;20050;-59
2022/10/18 08:15:00;;;;;;;7.93;5.97;;;24.10;45.80;;;;;;4961099;28;20051;-60
2022/10/18 08:17:27;;;;;;;8.05;6.18;;;24.10;45.10;;;;;;4961114;28;20055;-59
2022/10/18 08:19:55;;;;;;;10.80;6.95;;;24.10;45.00;;;;;;4958507;28;20062;-59
2022/10/18 08:22:42;;;;;;;11.23;6.57;;;24.20;45.00;;;;;;4961014;28;20051;-59
2022/10/18 08:25:09;;;;;;;10.05;6.35;;;24.20;45.10;;;;;;4960737;28;20544;-60
2022/10/18 08:27:36;;;;;;;11.77;6.70;;;24.20;45.00;;;;;;4957746;28;20065;-58
2022/10/18 08:30:05;;;;;;;9.50;6.63;;;24.20;45.00;;;;;;4956997;28;20074;-58
2022/10/18 08:32:32;;;;;;;8.32;5.85;;;24.30;45.00;;;;;;4960761;28;20047;-58
2022/10/18 08:34:59;;;;;;;9.35;6.13;;;24.30;45.00;;;;;;4960129;28;20426;-59
2022/10/18 08:37:30;;;;;;;10.10;7.18;;;24.30;45.10;;;;;;4959724;28;20061;-60
2022/10/18 08:39:57;;;;;;;10.13;6.30;;;24.30;45.00;;;;;;4961114;28;20054;-59
2022/10/18 08:42:49;;;;;;;10.25;6.03;;;24.30;45.00;;;;;;4959036;28;20457;-57
2022/10/18 08:45:16;;;;;;;9.57;6.95;;;24.40;45.20;;;;;;4961858;28;20054;-59
2022/10/18 08:48:05;;;;;;;10.00;6.40;;;24.50;45.30;;;;;;4958691;28;20054;-59
2022/10/18 08:50:36;;;;;;;14.35;6.78;;;24.50;45.20;;;;;;4956368;28;20058;-59
2022/10/18 08:53:27;;;;;;;7.65;6.45;;;24.50;45.20;;;;;;4951027;28;20472;-59
2022/10/18 08:56:03;;;;;;;10.52;7.20;;;24.50;45.20;;;;;;4949740;28;20544;-58
2022/10/18 08:58:32;;;;;;;10.75;7.15;;;24.60;45.10;;;;;;4954829;28;20050;-59
2022/10/18 09:01:33;;;;;;;8.52;6.57;;;24.60;45.20;;;;;;4947102;28;20058;-58
2022/10/18 09:04:35;;;;;;;10.73;6.63;;;24.60;45.10;;;;;;4953496;28;20519;-58
2022/10/18 09:07:35;;;;;;;10.95;6.88;;;24.70;45.60;;;;;;4954341;28;20055;-58
2022/10/18 09:10:41;;;;;;;9.93;6.70;;;24.70;44.90;;;;;;4956836;28;20173;-58
2022/10/18 09:13:48;;;;;;;11.43;7.30;;;24.70;44.70;;;;;;4952873;28;20051;-58
2022/10/18 09:16:26;;;;;;;10.30;5.68;;;24.80;44.70;;;;;;4959207;28;20399;-58
2022/10/18 09:19:33;;;;;;;9.25;6.72;;;24.80;44.60;;;;;;4955704;28;20065;-60
2022/10/18 09:22:16;;;;;;;7.43;5.72;;;24.80;44.40;;;;;;4956398;28;20078;-59
2022/10/18 09:25:08;;;;;;;7.43;6.07;;;24.80;44.30;;;;;;4952804;28;20058;-60
2022/10/18 09:27:47;;;;;;;13.50;7.07;;;24.90;44.10;;;;;;4957536;28;20062;-60
2022/10/18 09:30:40;;;;;;;10.70;6.28;;;24.90;44.00;;;;;;4963557;28;20051;-60
2022/10/18 09:33:26;;;;;;;7.15;5.40;;;24.90;43.90;;;;;;4958311;28;20051;-59
2022/10/18 09:36:04;;;;;;;8.20;6.53;;;24.90;43.60;;;;;;4962299;28;20058;-58
2022/10/18 09:38:42;;;;;;;7.28;5.88;;;24.90;43.40;;;;;;4965530;28;20509;-60
2022/10/18 09:41:31;;;;;;;8.85;6.18;;;24.90;43.40;;;;;;4962802;28;20792;-59
2022/10/18 09:44:05;;;;;;;9.68;5.85;;;25.00;43.30;;;;;;4960566;28;20481;-60
2022/10/18 09:46:38;;;;;;;7.70;5.50;;;25.00;43.80;;;;;;4962953;28;20492;-61
2022/10/18 09:49:20;;;;;;;8.40;5.90;;;25.00;43.10;;;;;;4959633;28;20551;-60
2022/10/18 09:51:49;;;;;;;6.72;5.30;;;25.00;42.90;;;;;;4955751;28;20050;-61
2022/10/18 09:54:28;;;;;;;7.15;5.50;;;25.10;43.00;;;;;;4962655;28;20059;-63
2022/10/18 09:57:20;;;;;;;6.18;4.97;;;25.10;43.00;;;;;;4958348;28;20039;-59
2022/10/18 10:00:02;;;;;;;6.82;5.50;;;25.10;43.00;;;;;;4962149;28;20051;-59
2022/10/18 10:02:29;;;;;;;10.10;5.75;;;25.10;43.00;;;;;;4964211;28;20474;-59
2022/10/18 10:04:56;;;;;;;7.38;5.43;;;25.10;43.00;;;;;;4967235;28;20046;-61
2022/10/18 10:07:26;;;;;;;9.35;5.57;;;25.20;43.00;;;;;;4967383;28;20436;-60
2022/10/18 10:10:18;;;;;;;8.95;5.63;;;25.20;43.00;;;;;;4966885;28;20072;-60
2022/10/18 10:12:47;;;;;;;6.28;5.18;;;25.20;42.80;;;;;;4961334;28;20046;-60
2022/10/18 10:15:24;;;;;;;8.53;6.03;;;25.20;42.70;;;;;;4960455;28;20471;-60
2022/10/18 10:18:06;;;;;;;6.47;4.55;;;25.20;42.60;;;;;;4962789;28;20331;-60
2022/10/18 10:20:44;;;;;;;8.23;5.93;;;25.20;42.40;;;;;;4961915;28;20066;-60
2022/10/18 10:23:23;;;;;;;7.38;5.38;;;25.30;42.30;;;;;;4958836;28;20055;-60
2022/10/18 10:25:57;;;;;;;7.47;5.15;;;25.30;41.90;;;;;;4964185;28;20499;-60
2022/10/18 10:28:33;;;;;;;7.88;5.13;;;25.30;41.80;;;;;;4958330;28;20058;-61
2022/10/18 10:31:28;;;;;;;7.90;5.05;;;25.30;41.70;;;;;;4965643;28;20113;-60
2022/10/18 10:34:19;;;;;;;6.97;5.38;;;25.30;41.60;;;;;;4964618;28;20042;-60
2022/10/18 10:36:48;;;;;;;9.32;4.93;;;25.30;41.50;;;;;;4960513;28;20051;-61
2022/10/18 10:39:18;;;;;;;6.32;5.13;;;25.30;41.30;;;;;;4961456;28;20047;-61
2022/10/18 10:41:51;;;;;;;7.88;4.70;;;25.40;41.40;;;;;;4957949;28;20106;-61
2022/10/18 10:44:22;;;;;;;6.63;5.68;;;25.30;41.20;;;;;;4960175;28;20046;-59
2022/10/18 10:46:50;;;;;;;8.32;5.55;;;25.40;41.20;;;;;;4960510;28;20053;-60
2022/10/18 10:49:41;;;;;;;5.53;4.68;;;25.30;41.10;;;;;;4954433;28;20051;-60
2022/10/18 10:52:22;;;;;;;7.20;5.80;;;25.30;41.10;;;;;;4955878;28;20066;-60
2022/10/18 10:54:56;;;;;;;9.35;5.38;;;25.40;41.10;;;;;;4956891;28;20058;-60
2022/10/18 10:57:48;;;;;;;8.63;5.03;;;25.30;41.00;;;;;;4957418;28;20047;-60
2022/10/18 11:00:38;;;;;;;6.90;4.93;;;25.40;41.00;;;;;;4957784;28;20047;-59
2022/10/18 11:03:12;;;;;;;7.82;5.15;;;25.40;41.00;;;;;;4959538;28;20049;-59
2022/10/18 11:05:56;;;;;;;9.80;5.18;;;25.30;41.10;;;;;;4953451;28;20055;-59
2022/10/18 11:08:27;;;;;;;6.45;4.72;;;25.30;41.20;;;;;;4958916;28;20043;-59
2022/10/18 11:11:26;;;;;;;7.35;4.80;;;25.30;41.40;;;;;;4959193;28;20055;-60
2022/10/18 11:14:08;;;;;;;6.63;5.30;;;25.30;41.40;;;;;;4958954;28;20492;-59
2022/10/18 11:17:22;;;;;;;10.50;5.85;;;25.40;41.40;;;;;;4958186;28;20133;-60
2022/10/18 11:20:09;;;;;;;6.22;5.10;;;25.40;41.40;;;;;;4963537;28;20070;-60
2022/10/18 11:22:59;;;;;;;7.35;4.78;;;25.40;41.30;;;;;;4956353;28;20050;-61
2022/10/18 11:25:58;;;;;;;10.07;6.30;;;25.40;41.30;;;;;;4961204;28;20054;-61
2022/10/18 11:29:00;;;;;;;6.05;4.70;;;25.40;41.30;;;;;;4960416;28;20132;-60
2022/10/18 11:32:09;;;;;;;5.55;4.95;;;25.40;41.30;;;;;;4951214;28;20055;-61
2022/10/18 11:34:59;;;;;;;8.18;4.88;;;25.50;41.40;;;;;;4946963;28;20058;-60
2022/10/18 11:37:47;;;;;;;6.30;4.93;;;25.50;41.40;;;;;;4957114;28;20057;-60
2022/10/18 11:40:38;;;;;;;5.72;4.38;;;25.50;41.30;;;;;;4962133;28;20046;-60
2022/10/18 11:43:19;;;;;;;5.68;5.05;;;25.50;41.30;;;;;;4961874;28;20135;-59
2022/10/18 11:46:14;;;;;;;5.63;4.55;;;25.50;41.30;;;;;;4959551;28;20065;-60
2022/10/18 11:49:10;;;;;;;5.03;4.30;;;25.60;41.30;;;;;;4958533;28;20058;-59
2022/10/18 11:52:16;;;;;;;7.72;5.20;;;25.50;41.30;;;;;;4959340;28;20058;-60
2022/10/18 11:55:08;;;;;;;6.80;4.70;;;25.50;41.10;;;;;;4955366;28;20043;-59
2022/10/18 11:58:11;;;;;;;6.03;5.15;;;25.60;41.10;;;;;;4960488;28;20043;-59
2022/10/18 12:00:51;;;;;;;14.07;4.93;;;25.60;41.00;;;;;;4960831;28;20298;-59
2022/10/18 12:03:48;;;;;;;7.97;4.47;;;25.60;41.10;;;;;;4957368;28;20050;-59
2022/10/18 12:06:19;;;;;;;5.30;4.80;;;25.60;41.00;;;;;;4962233;28;20046;-59
2022/10/18 12:08:54;;;;;;;8.15;5.00;;;25.60;41.00;;;;;;4962435;28;20490;-59
2022/10/18 12:11:27;;;;;;;6.53;5.43;;;25.60;40.90;;;;;;4959761;28;20241;-59
2022/10/18 12:14:06;;;;;;;6.70;4.65;;;25.60;40.90;;;;;;4958823;28;20055;-59
2022/10/18 12:16:36;;;;;;;6.22;4.80;;;25.70;40.90;;;;;;4961772;28;20058;-60
2022/10/18 12:19:27;;;;;;;7.15;4.47;;;25.70;40.60;;;;;;4965201;28;20379;-60
2022/10/18 12:21:56;;;;;;;10.02;4.18;;;25.70;40.50;;;;;;4959627;28;20058;-60
2022/10/18 12:24:32;;;;;;;8.02;4.68;;;25.70;40.50;;;;;;4960184;28;20058;-60
2022/10/18 12:27:01;;;;;;;7.03;4.00;;;25.70;40.40;;;;;;4957891;28;20043;-59
2022/10/18 12:29:50;;;;;;;5.20;4.68;;;25.70;40.30;;;;;;4958524;28;20054;-59
2022/10/18 12:32:23;;;;;;;8.82;4.47;;;25.70;40.30;;;;;;4958699;28;20146;-59
2022/10/18 12:34:57;;;;;;;6.15;4.50;;;25.70;40.20;;;;;;4954989;28;20054;-59
2022/10/18 12:37:58;;;;;;;5.90;4.60;;;25.70;40.20;;;;;;4956080;28;20159;-59
2022/10/18 12:40:40;;;;;;;7.45;4.45;;;25.70;40.20;;;;;;4963670;28;20503;-58
2022/10/18 12:43:15;;;;;;;5.65;4.28;;;25.70;40.20;;;;;;4966137;28;20049;-59
2022/10/18 12:45:53;;;;;;;5.20;4.70;;;25.70;40.20;;;;;;4955502;28;20051;-59
2022/10/18 12:48:41;;;;;;;7.03;4.50;;;25.80;40.10;;;;;;4965633;28;20402;-59
2022/10/18 12:51:18;;;;;;;5.93;4.05;;;25.80;40.10;;;;;;4961679;28;20054;-58
2022/10/18 12:53:48;;;;;;;6.63;4.95;;;25.80;40.10;;;;;;4962140;28;20130;-59
2022/10/18 12:56:36;;;;;;;6.22;4.65;;;25.80;40.70;;;;;;4965273;28;20056;-59
2022/10/18 12:59:43;;;;;;;5.05;4.18;;;25.80;39.70;;;;;;4961008;28;20050;-59
2022/10/18 13:02:22;;;;;;;6.03;4.40;;;25.80;39.60;;;;;;4961697;28;20054;-60
2022/10/18 13:04:49;;;;;;;6.57;4.40;;;25.80;39.60;;;;;;4960446;28;20051;-59
2022/10/18 13:07:21;;;;;;;4.55;4.10;;;25.80;39.70;;;;;;4966715;28;20061;-59
2022/10/18 13:10:27;;;;;;;4.75;3.95;;;25.80;39.80;;;;;;4964017;28;20399;-60
2022/10/18 13:13:23;;;;;;;8.77;4.75;;;25.80;39.60;;;;;;4981250;28;20050;-59
2022/10/18 13:16:26;;;;;;;4.13;3.72;;;25.80;39.60;;;;;;4954212;28;20053;-59
2022/10/18 13:19:08;;;;;;;4.97;4.47;;;25.80;39.50;;;;;;4964955;28;20050;-60
2022/10/18 13:22:09;;;;;;;6.15;3.63;;;25.80;39.40;;;;;;4968609;28;20483;-59
2022/10/18 13:24:54;;;;;;;4.88;4.35;;;25.80;39.50;;;;;;4965595;28;20054;-60